sensor_id;sensor_type;location;lat;lon;timestamp;pressure;altitude;pressure_sealevel;temperature;humidity
74372;BME280;62885;51.374;6.170;2022-11-06T00:00:15;101312.22;;;9.49;77.37
74372;BME280;62885;51.374;6.170;2022-11-06T00:02:40;101310.09;;;9.82;77.48
74372;BME280;62885;51.374;6.170;2022-11-06T00:05:06;101300.66;;;9.63;76.90
74372;BME280;62885;51.374;6.170;2022-11-06T00:07:50;101298.72;;;9.79;76.43
74372;BME280;62885;51.374;6.170;2022-11-06T00:10:16;101300.16;;;9.84;76.22
74372;BME280;62885;51.374;6.170;2022-11-06T00:12:42;101309.72;;;9.74;76.23
74372;BME280;62885;51.374;6.170;2022-11-06T00:15:08;101312.47;;;9.73;76.30
74372;BME280;62885;51.374;6.170;2022-11-06T00:17:34;101306.69;;;9.66;77.05
74372;BME280;62885;51.374;6.170;2022-11-06T00:19:59;101304.97;;;9.65;77.02
74372;BME280;62885;51.374;6.170;2022-11-06T00:22:24;101297.41;;;9.72;75.97
74372;BME280;62885;51.374;6.170;2022-11-06T00:24:50;101300.47;;;9.66;76.22
74372;BME280;62885;51.374;6.170;2022-11-06T00:27:15;101318.50;;;9.62;76.04
74372;BME280;62885;51.374;6.170;2022-11-06T00:29:40;101310.88;;;9.70;75.95
74372;BME280;62885;51.374;6.170;2022-11-06T00:32:06;101312.69;;;9.56;76.71
74372;BME280;62885;51.374;6.170;2022-11-06T00:34:31;101314.78;;;9.51;76.85
74372;BME280;62885;51.374;6.170;2022-11-06T00:36:57;101314.31;;;9.58;76.60
74372;BME280;62885;51.374;6.170;2022-11-06T00:39:22;101312.47;;;9.44;77.15
74372;BME280;62885;51.374;6.170;2022-11-06T00:41:47;101311.72;;;9.57;76.16
74372;BME280;62885;51.374;6.170;2022-11-06T00:44:13;101310.22;;;9.53;76.38
74372;BME280;62885;51.374;6.170;2022-11-06T00:46:38;101304.09;;;9.65;76.15
74372;BME280;62885;51.374;6.170;2022-11-06T00:49:03;101311.25;;;9.50;76.26
74372;BME280;62885;51.374;6.170;2022-11-06T00:51:35;101314.59;;;9.68;75.94
74372;BME280;62885;51.374;6.170;2022-11-06T00:54:05;101314.03;;;9.63;75.83
74372;BME280;62885;51.374;6.170;2022-11-06T00:56:31;101310.97;;;9.55;76.17
74372;BME280;62885;51.374;6.170;2022-11-06T00:58:59;101307.44;;;9.54;75.98
74372;BME280;62885;51.374;6.170;2022-11-06T01:04:00;101298.06;;;9.61;75.82
74372;BME280;62885;51.374;6.170;2022-11-06T01:06:31;101291.38;;;9.82;75.75
74372;BME280;62885;51.374;6.170;2022-11-06T01:08:56;101306.19;;;9.74;75.02
74372;BME280;62885;51.374;6.170;2022-11-06T01:11:28;101298.06;;;9.75;74.94
74372;BME280;62885;51.374;6.170;2022-11-06T01:13:55;101300.28;;;9.55;75.82
74372;BME280;62885;51.374;6.170;2022-11-06T01:16:22;101297.13;;;9.62;75.45
74372;BME280;62885;51.374;6.170;2022-11-06T01:18:49;101289.47;;;9.56;76.25
74372;BME280;62885;51.374;6.170;2022-11-06T01:21:17;101285.19;;;9.54;75.64
74372;BME280;62885;51.374;6.170;2022-11-06T01:23:43;101288.34;;;9.46;75.99
74372;BME280;62885;51.374;6.170;2022-11-06T01:26:10;101285.28;;;9.52;76.05
74372;BME280;62885;51.374;6.170;2022-11-06T01:28:37;101284.69;;;9.61;75.73
74372;BME280;62885;51.374;6.170;2022-11-06T01:31:14;101278.44;;;9.48;75.90
74372;BME280;62885;51.374;6.170;2022-11-06T01:33:41;101280.97;;;9.49;75.93
74372;BME280;62885;51.374;6.170;2022-11-06T01:36:11;101278.31;;;9.49;76.08
74372;BME280;62885;51.374;6.170;2022-11-06T01:38:41;101263.72;;;9.41;75.64
74372;BME280;62885;51.374;6.170;2022-11-06T01:41:07;101266.00;;;9.47;76.00
74372;BME280;62885;51.374;6.170;2022-11-06T01:46:10;101263.31;;;9.33;76.40
74372;BME280;62885;51.374;6.170;2022-11-06T01:48:37;101255.50;;;9.30;77.31
74372;BME280;62885;51.374;6.170;2022-11-06T01:51:04;101261.22;;;9.38;76.98
74372;BME280;62885;51.374;6.170;2022-11-06T01:53:30;101261.13;;;9.39;76.10
74372;BME280;62885;51.374;6.170;2022-11-06T01:55:58;101254.53;;;9.45;76.23
74372;BME280;62885;51.374;6.170;2022-11-06T01:58:27;101256.66;;;9.40;75.89
74372;BME280;62885;51.374;6.170;2022-11-06T02:00:54;101250.75;;;9.35;76.27
74372;BME280;62885;51.374;6.170;2022-11-06T02:03:20;101258.94;;;9.32;76.45
74372;BME280;62885;51.374;6.170;2022-11-06T02:05:45;101254.00;;;9.26;76.97
74372;BME280;62885;51.374;6.170;2022-11-06T02:08:13;101255.22;;;9.34;76.18
74372;BME280;62885;51.374;6.170;2022-11-06T02:10:40;101252.47;;;9.36;76.69
74372;BME280;62885;51.374;6.170;2022-11-06T02:19:08;101253.69;;;9.59;75.60
74372;BME280;62885;51.374;6.170;2022-11-06T02:27:17;101244.22;;;9.67;75.33
74372;BME280;62885;51.374;6.170;2022-11-06T02:30:05;101247.91;;;9.79;74.63
74372;BME280;62885;51.374;6.170;2022-11-06T02:35:01;101239.34;;;9.74;75.25
74372;BME280;62885;51.374;6.170;2022-11-06T02:37:33;101233.50;;;9.81;74.92
74372;BME280;62885;51.374;6.170;2022-11-06T02:40:06;101224.38;;;9.71;74.79
74372;BME280;62885;51.374;6.170;2022-11-06T02:42:37;101229.66;;;9.85;74.78
74372;BME280;62885;51.374;6.170;2022-11-06T02:45:07;101235.97;;;9.84;74.87
74372;BME280;62885;51.374;6.170;2022-11-06T02:47:34;101232.09;;;9.76;75.38
74372;BME280;62885;51.374;6.170;2022-11-06T02:50:11;101222.34;;;9.75;75.35
74372;BME280;62885;51.374;6.170;2022-11-06T02:52:49;101218.97;;;9.85;74.77
74372;BME280;62885;51.374;6.170;2022-11-06T02:55:24;101216.19;;;9.87;75.13
74372;BME280;62885;51.374;6.170;2022-11-06T02:57:52;101210.59;;;9.77;75.46
74372;BME280;62885;51.374;6.170;2022-11-06T03:00:20;101213.31;;;9.90;75.10
74372;BME280;62885;51.374;6.170;2022-11-06T03:02:57;101211.34;;;9.79;75.27
74372;BME280;62885;51.374;6.170;2022-11-06T03:10:35;101208.03;;;10.03;75.55
74372;BME280;62885;51.374;6.170;2022-11-06T03:13:26;101203.47;;;9.90;75.00
74372;BME280;62885;51.374;6.170;2022-11-06T03:19:06;101201.50;;;10.21;74.70
74372;BME280;62885;51.374;6.170;2022-11-06T03:21:32;101198.28;;;10.02;75.10
74372;BME280;62885;51.374;6.170;2022-11-06T03:27:09;101208.88;;;10.17;74.97
74372;BME280;62885;51.374;6.170;2022-11-06T03:29:41;101207.16;;;10.16;75.17
74372;BME280;62885;51.374;6.170;2022-11-06T03:32:25;101206.75;;;10.08;75.03
74372;BME280;62885;51.374;6.170;2022-11-06T03:35:10;101219.31;;;10.35;74.57
74372;BME280;62885;51.374;6.170;2022-11-06T03:37:45;101215.31;;;10.27;74.52
74372;BME280;62885;51.374;6.170;2022-11-06T03:40:14;101202.16;;;10.24;74.74
74372;BME280;62885;51.374;6.170;2022-11-06T03:42:42;101188.81;;;10.10;75.27
74372;BME280;62885;51.374;6.170;2022-11-06T03:45:13;101195.97;;;10.24;75.19
74372;BME280;62885;51.374;6.170;2022-11-06T03:47:44;101198.22;;;10.43;74.61
74372;BME280;62885;51.374;6.170;2022-11-06T03:50:18;101191.47;;;10.37;74.86
74372;BME280;62885;51.374;6.170;2022-11-06T03:52:50;101189.66;;;10.38;74.76
74372;BME280;62885;51.374;6.170;2022-11-06T03:55:27;101177.97;;;10.26;75.52
74372;BME280;62885;51.374;6.170;2022-11-06T03:58:06;101167.28;;;10.39;75.21
74372;BME280;62885;51.374;6.170;2022-11-06T04:00:34;101172.19;;;10.32;74.96
74372;BME280;62885;51.374;6.170;2022-11-06T04:03:05;101166.81;;;10.19;75.15
74372;BME280;62885;51.374;6.170;2022-11-06T04:05:41;101163.84;;;10.24;75.55
74372;BME280;62885;51.374;6.170;2022-11-06T04:08:09;101169.28;;;10.22;75.85
74372;BME280;62885;51.374;6.170;2022-11-06T04:10:58;101158.19;;;10.14;75.45
74372;BME280;62885;51.374;6.170;2022-11-06T04:13:45;101166.97;;;10.31;75.36
74372;BME280;62885;51.374;6.170;2022-11-06T04:16:39;101157.22;;;10.29;75.21
74372;BME280;62885;51.374;6.170;2022-11-06T04:19:13;101163.09;;;10.22;75.92
74372;BME280;62885;51.374;6.170;2022-11-06T04:25:10;101146.50;;;10.03;76.26
74372;BME280;62885;51.374;6.170;2022-11-06T04:30:43;101144.72;;;10.16;76.66
74372;BME280;62885;51.374;6.170;2022-11-06T04:33:16;101146.50;;;10.03;76.31
74372;BME280;62885;51.374;6.170;2022-11-06T04:35:52;101139.47;;;10.14;76.54
74372;BME280;62885;51.374;6.170;2022-11-06T04:41:14;101142.56;;;10.08;76.67
74372;BME280;62885;51.374;6.170;2022-11-06T04:43:57;101125.72;;;9.94;77.56
74372;BME280;62885;51.374;6.170;2022-11-06T04:46:31;101128.69;;;10.16;76.31
74372;BME280;62885;51.374;6.170;2022-11-06T04:48:59;101116.88;;;10.06;76.96
74372;BME280;62885;51.374;6.170;2022-11-06T04:51:28;101110.31;;;9.97;77.28
74372;BME280;62885;51.374;6.170;2022-11-06T04:53:55;101113.31;;;9.93;77.38
74372;BME280;62885;51.374;6.170;2022-11-06T04:56:29;101109.22;;;9.87;77.79
74372;BME280;62885;51.374;6.170;2022-11-06T04:58:55;101109.09;;;9.76;78.01
74372;BME280;62885;51.374;6.170;2022-11-06T05:01:21;101104.69;;;9.75;78.44
74372;BME280;62885;51.374;6.170;2022-11-06T05:03:46;101097.75;;;9.72;78.29
74372;BME280;62885;51.374;6.170;2022-11-06T05:06:12;101096.44;;;9.65;78.85
74372;BME280;62885;51.374;6.170;2022-11-06T05:08:38;101102.44;;;9.69;78.77
74372;BME280;62885;51.374;6.170;2022-11-06T05:11:03;101114.63;;;9.73;78.34
74372;BME280;62885;51.374;6.170;2022-11-06T05:13:29;101108.00;;;9.66;78.53
74372;BME280;62885;51.374;6.170;2022-11-06T05:15:58;101100.16;;;9.63;78.46
74372;BME280;62885;51.374;6.170;2022-11-06T05:18:24;101092.50;;;9.71;78.67
74372;BME280;62885;51.374;6.170;2022-11-06T05:20:50;101101.00;;;9.63;79.00
74372;BME280;62885;51.374;6.170;2022-11-06T05:23:35;101094.91;;;9.61;79.12
74372;BME280;62885;51.374;6.170;2022-11-06T05:26:03;101087.56;;;9.65;78.90
74372;BME280;62885;51.374;6.170;2022-11-06T05:28:29;101094.72;;;9.64;79.12
74372;BME280;62885;51.374;6.170;2022-11-06T05:30:54;101093.50;;;9.56;79.01
74372;BME280;62885;51.374;6.170;2022-11-06T05:33:19;101086.88;;;9.61;79.01
74372;BME280;62885;51.374;6.170;2022-11-06T05:35:45;101087.66;;;9.63;78.91
74372;BME280;62885;51.374;6.170;2022-11-06T05:38:10;101087.56;;;9.65;78.68
74372;BME280;62885;51.374;6.170;2022-11-06T05:40:35;101086.47;;;9.67;78.29
74372;BME280;62885;51.374;6.170;2022-11-06T05:43:01;101079.25;;;9.55;78.64
74372;BME280;62885;51.374;6.170;2022-11-06T05:45:26;101081.44;;;9.63;79.32
74372;BME280;62885;51.374;6.170;2022-11-06T05:47:51;101072.47;;;9.64;78.94
74372;BME280;62885;51.374;6.170;2022-11-06T05:50:17;101077.91;;;9.62;78.48
74372;BME280;62885;51.374;6.170;2022-11-06T05:52:42;101076.66;;;9.68;78.73
74372;BME280;62885;51.374;6.170;2022-11-06T05:55:08;101080.28;;;9.67;78.56
74372;BME280;62885;51.374;6.170;2022-11-06T05:57:33;101071.38;;;9.54;78.59
74372;BME280;62885;51.374;6.170;2022-11-06T05:59:58;101069.56;;;9.54;79.08
74372;BME280;62885;51.374;6.170;2022-11-06T06:02:24;101063.13;;;9.57;78.94
74372;BME280;62885;51.374;6.170;2022-11-06T06:04:49;101059.88;;;9.66;78.36
74372;BME280;62885;51.374;6.170;2022-11-06T06:07:14;101062.69;;;9.50;79.38
74372;BME280;62885;51.374;6.170;2022-11-06T06:09:40;101057.78;;;9.57;79.11
74372;BME280;62885;51.374;6.170;2022-11-06T06:12:05;101054.25;;;9.56;78.92
74372;BME280;62885;51.374;6.170;2022-11-06T06:14:30;101049.84;;;9.42;79.28
74372;BME280;62885;51.374;6.170;2022-11-06T06:16:56;101047.44;;;9.38;79.63
74372;BME280;62885;51.374;6.170;2022-11-06T06:19:21;101048.16;;;9.27;79.94
74372;BME280;62885;51.374;6.170;2022-11-06T06:21:48;101053.25;;;9.18;81.17
74372;BME280;62885;51.374;6.170;2022-11-06T06:24:13;101049.81;;;9.16;80.78
74372;BME280;62885;51.374;6.170;2022-11-06T06:26:38;101057.00;;;9.01;81.37
74372;BME280;62885;51.374;6.170;2022-11-06T06:29:04;101061.19;;;9.05;81.09
74372;BME280;62885;51.374;6.170;2022-11-06T06:31:29;101064.50;;;9.08;81.77
74372;BME280;62885;51.374;6.170;2022-11-06T06:33:54;101061.66;;;9.12;81.04
74372;BME280;62885;51.374;6.170;2022-11-06T06:36:20;101061.56;;;9.13;81.34
74372;BME280;62885;51.374;6.170;2022-11-06T06:38:45;101060.63;;;9.00;81.47
74372;BME280;62885;51.374;6.170;2022-11-06T06:41:10;101058.91;;;8.99;81.51
74372;BME280;62885;51.374;6.170;2022-11-06T06:43:36;101055.69;;;8.94;82.01
74372;BME280;62885;51.374;6.170;2022-11-06T06:46:03;101058.56;;;8.91;82.36
74372;BME280;62885;51.374;6.170;2022-11-06T06:48:29;101063.69;;;8.94;81.92
74372;BME280;62885;51.374;6.170;2022-11-06T06:51:01;101058.25;;;8.95;81.88
74372;BME280;62885;51.374;6.170;2022-11-06T06:53:27;101056.31;;;8.97;81.69
74372;BME280;62885;51.374;6.170;2022-11-06T06:55:53;101055.22;;;8.87;81.63
74372;BME280;62885;51.374;6.170;2022-11-06T06:58:19;101057.88;;;8.87;81.70
74372;BME280;62885;51.374;6.170;2022-11-06T07:00:45;101059.13;;;8.82;81.76
74372;BME280;62885;51.374;6.170;2022-11-06T07:03:10;101062.75;;;8.81;82.34
74372;BME280;62885;51.374;6.170;2022-11-06T07:05:36;101068.38;;;8.90;81.80
74372;BME280;62885;51.374;6.170;2022-11-06T07:08:01;101073.22;;;8.98;81.22
74372;BME280;62885;51.374;6.170;2022-11-06T07:10:29;101079.78;;;8.92;81.75
74372;BME280;62885;51.374;6.170;2022-11-06T07:12:54;101075.78;;;8.85;81.24
74372;BME280;62885;51.374;6.170;2022-11-06T07:15:20;101076.56;;;8.87;81.62
74372;BME280;62885;51.374;6.170;2022-11-06T07:17:45;101074.28;;;8.95;81.66
74372;BME280;62885;51.374;6.170;2022-11-06T07:20:10;101078.66;;;8.96;80.90
74372;BME280;62885;51.374;6.170;2022-11-06T07:22:36;101067.78;;;8.99;81.25
74372;BME280;62885;51.374;6.170;2022-11-06T07:25:01;101068.44;;;9.03;81.05
74372;BME280;62885;51.374;6.170;2022-11-06T07:27:26;101063.06;;;9.17;80.16
74372;BME280;62885;51.374;6.170;2022-11-06T07:29:53;101060.63;;;9.14;80.18
74372;BME280;62885;51.374;6.170;2022-11-06T07:32:19;101060.88;;;9.10;80.83
74372;BME280;62885;51.374;6.170;2022-11-06T07:34:44;101056.00;;;9.16;80.71
74372;BME280;62885;51.374;6.170;2022-11-06T07:37:09;101056.47;;;9.23;79.80
74372;BME280;62885;51.374;6.170;2022-11-06T07:39:35;101066.91;;;9.13;80.42
74372;BME280;62885;51.374;6.170;2022-11-06T07:42:00;101071.56;;;9.10;79.74
74372;BME280;62885;51.374;6.170;2022-11-06T07:44:25;101071.78;;;9.06;80.74
74372;BME280;62885;51.374;6.170;2022-11-06T07:46:51;101070.16;;;9.04;80.27
74372;BME280;62885;51.374;6.170;2022-11-06T07:49:19;101067.31;;;9.07;80.61
74372;BME280;62885;51.374;6.170;2022-11-06T07:51:44;101064.50;;;9.23;79.75
74372;BME280;62885;51.374;6.170;2022-11-06T07:54:10;101068.09;;;9.22;80.03
74372;BME280;62885;51.374;6.170;2022-11-06T07:56:36;101064.88;;;9.17;80.02
74372;BME280;62885;51.374;6.170;2022-11-06T07:59:02;101070.28;;;9.29;80.24
74372;BME280;62885;51.374;6.170;2022-11-06T08:01:28;101060.81;;;9.38;80.08
74372;BME280;62885;51.374;6.170;2022-11-06T08:03:53;101052.97;;;9.49;79.84
74372;BME280;62885;51.374;6.170;2022-11-06T08:06:19;101052.00;;;9.50;78.88
74372;BME280;62885;51.374;6.170;2022-11-06T08:08:44;101052.34;;;9.58;78.61
74372;BME280;62885;51.374;6.170;2022-11-06T08:11:10;101054.06;;;9.59;78.60
74372;BME280;62885;51.374;6.170;2022-11-06T08:13:36;101046.91;;;9.60;78.91
74372;BME280;62885;51.374;6.170;2022-11-06T08:16:07;101028.84;;;9.63;78.94
74372;BME280;62885;51.374;6.170;2022-11-06T08:18:33;101041.06;;;9.80;78.57
74372;BME280;62885;51.374;6.170;2022-11-06T08:20:58;101034.22;;;9.76;78.29
74372;BME280;62885;51.374;6.170;2022-11-06T08:23:24;101038.19;;;9.83;78.04
74372;BME280;62885;51.374;6.170;2022-11-06T08:25:53;101031.13;;;9.82;78.17
74372;BME280;62885;51.374;6.170;2022-11-06T08:28:18;101028.25;;;9.72;78.08
74372;BME280;62885;51.374;6.170;2022-11-06T08:30:43;101032.09;;;9.81;77.54
74372;BME280;62885;51.374;6.170;2022-11-06T08:33:09;101035.97;;;9.89;77.76
74372;BME280;62885;51.374;6.170;2022-11-06T08:35:35;101038.84;;;9.86;77.81
74372;BME280;62885;51.374;6.170;2022-11-06T08:38:01;101033.41;;;9.88;77.82
74372;BME280;62885;51.374;6.170;2022-11-06T08:40:27;101036.06;;;9.88;77.54
74372;BME280;62885;51.374;6.170;2022-11-06T08:42:52;101029.34;;;9.95;77.69
74372;BME280;62885;51.374;6.170;2022-11-06T08:45:22;101028.94;;;10.01;77.02
74372;BME280;62885;51.374;6.170;2022-11-06T08:47:47;101033.63;;;9.98;77.30
74372;BME280;62885;51.374;6.170;2022-11-06T08:50:13;101014.69;;;10.01;77.77
74372;BME280;62885;51.374;6.170;2022-11-06T08:52:38;101019.63;;;10.07;77.34
74372;BME280;62885;51.374;6.170;2022-11-06T08:55:03;100999.28;;;10.04;77.79
74372;BME280;62885;51.374;6.170;2022-11-06T08:57:29;100994.38;;;10.11;77.19
74372;BME280;62885;51.374;6.170;2022-11-06T08:59:54;100991.06;;;10.20;77.07
74372;BME280;62885;51.374;6.170;2022-11-06T09:02:20;100997.81;;;10.25;76.78
74372;BME280;62885;51.374;6.170;2022-11-06T09:04:45;100989.25;;;10.20;77.08
74372;BME280;62885;51.374;6.170;2022-11-06T09:07:10;100990.53;;;10.40;76.32
74372;BME280;62885;51.374;6.170;2022-11-06T09:09:39;100991.25;;;10.55;75.77
74372;BME280;62885;51.374;6.170;2022-11-06T09:12:04;100989.56;;;10.54;76.35
74372;BME280;62885;51.374;6.170;2022-11-06T09:14:32;100982.06;;;10.59;75.89
74372;BME280;62885;51.374;6.170;2022-11-06T09:16:58;100971.88;;;10.64;75.82
74372;BME280;62885;51.374;6.170;2022-11-06T09:19:23;100975.59;;;10.74;75.71
74372;BME280;62885;51.374;6.170;2022-11-06T09:21:48;100967.47;;;10.99;75.14
74372;BME280;62885;51.374;6.170;2022-11-06T09:24:14;100958.75;;;11.08;73.47
74372;BME280;62885;51.374;6.170;2022-11-06T09:26:39;100954.41;;;11.19;73.48
74372;BME280;62885;51.374;6.170;2022-11-06T09:29:04;100955.31;;;11.30;72.01
74372;BME280;62885;51.374;6.170;2022-11-06T09:31:30;100946.91;;;11.59;71.56
74372;BME280;62885;51.374;6.170;2022-11-06T09:33:55;100944.25;;;11.59;71.27
74372;BME280;62885;51.374;6.170;2022-11-06T09:36:21;100947.59;;;11.49;70.84
74372;BME280;62885;51.374;6.170;2022-11-06T09:38:46;100943.84;;;11.76;70.58
74372;BME280;62885;51.374;6.170;2022-11-06T09:42:19;100934.22;;;11.96;69.21
74372;BME280;62885;51.374;6.170;2022-11-06T09:47:16;100927.38;;;11.91;69.54
74372;BME280;62885;51.374;6.170;2022-11-06T09:49:51;100922.50;;;11.85;69.41
74372;BME280;62885;51.374;6.170;2022-11-06T09:55:09;100925.41;;;11.82;69.97
74372;BME280;62885;51.374;6.170;2022-11-06T09:57:38;100918.84;;;11.86;69.94
74372;BME280;62885;51.374;6.170;2022-11-06T10:00:07;100918.13;;;11.96;70.37
74372;BME280;62885;51.374;6.170;2022-11-06T10:02:38;100910.94;;;12.07;69.45
74372;BME280;62885;51.374;6.170;2022-11-06T10:05:26;100910.34;;;12.04;69.65
74372;BME280;62885;51.374;6.170;2022-11-06T10:07:55;100918.00;;;11.97;69.02
74372;BME280;62885;51.374;6.170;2022-11-06T10:10:26;100913.72;;;11.94;68.23
74372;BME280;62885;51.374;6.170;2022-11-06T10:13:13;100918.88;;;12.09;68.83
74372;BME280;62885;51.374;6.170;2022-11-06T10:16:24;100909.22;;;12.06;68.60
74372;BME280;62885;51.374;6.170;2022-11-06T10:24:13;100888.13;;;12.02;68.83
74372;BME280;62885;51.374;6.170;2022-11-06T10:26:42;100892.78;;;12.00;68.55
74372;BME280;62885;51.374;6.170;2022-11-06T10:37:58;100893.84;;;12.42;66.91
74372;BME280;62885;51.374;6.170;2022-11-06T10:40:25;100891.78;;;12.45;67.29
74372;BME280;62885;51.374;6.170;2022-11-06T10:45:51;100893.34;;;12.48;66.83
74372;BME280;62885;51.374;6.170;2022-11-06T10:51:17;100880.25;;;12.65;66.34
74372;BME280;62885;51.374;6.170;2022-11-06T10:57:27;100873.34;;;12.52;66.53
74372;BME280;62885;51.374;6.170;2022-11-06T10:59:31;100862.81;;;12.49;65.74
74372;BME280;62885;51.374;6.170;2022-11-06T11:01:57;100861.69;;;12.73;65.92
74372;BME280;62885;51.374;6.170;2022-11-06T11:04:22;100856.41;;;12.72;65.05
74372;BME280;62885;51.374;6.170;2022-11-06T11:06:47;100845.72;;;12.61;65.84
74372;BME280;62885;51.374;6.170;2022-11-06T11:09:27;100854.16;;;12.56;65.49
74372;BME280;62885;51.374;6.170;2022-11-06T11:11:53;100844.28;;;12.57;65.89
74372;BME280;62885;51.374;6.170;2022-11-06T11:14:27;100838.66;;;12.49;66.48
74372;BME280;62885;51.374;6.170;2022-11-06T11:16:54;100836.09;;;12.47;66.39
74372;BME280;62885;51.374;6.170;2022-11-06T11:21:57;100812.81;;;12.37;67.48
74372;BME280;62885;51.374;6.170;2022-11-06T11:24:22;100819.88;;;12.38;68.55
74372;BME280;62885;51.374;6.170;2022-11-06T11:26:57;100817.09;;;12.39;68.25
74372;BME280;62885;51.374;6.170;2022-11-06T11:29:28;100810.25;;;12.35;68.73
74372;BME280;62885;51.374;6.170;2022-11-06T11:31:56;100803.75;;;12.49;68.29
74372;BME280;62885;51.374;6.170;2022-11-06T11:34:26;100799.59;;;12.56;68.69
74372;BME280;62885;51.374;6.170;2022-11-06T11:37:05;100802.50;;;12.53;67.98
74372;BME280;62885;51.374;6.170;2022-11-06T11:39:35;100789.94;;;12.53;67.77
74372;BME280;62885;51.374;6.170;2022-11-06T11:42:25;100785.41;;;12.54;67.24
74372;BME280;62885;51.374;6.170;2022-11-06T11:45:12;100775.09;;;12.70;66.65
74372;BME280;62885;51.374;6.170;2022-11-06T11:47:47;100762.00;;;12.76;66.20
74372;BME280;62885;51.374;6.170;2022-11-06T11:52:48;100751.28;;;12.97;64.72
74372;BME280;62885;51.374;6.170;2022-11-06T11:55:17;100734.03;;;13.00;65.29
74372;BME280;62885;51.374;6.170;2022-11-06T11:57:44;100732.31;;;12.99;64.63
74372;BME280;62885;51.374;6.170;2022-11-06T12:00:17;100721.03;;;13.05;64.29
74372;BME280;62885;51.374;6.170;2022-11-06T12:02:46;100702.72;;;13.10;64.93
74372;BME280;62885;51.374;6.170;2022-11-06T12:05:14;100720.88;;;12.97;64.46
74372;BME280;62885;51.374;6.170;2022-11-06T12:07:51;100721.13;;;12.94;64.06
74372;BME280;62885;51.374;6.170;2022-11-06T12:12:53;100714.53;;;12.98;62.99
74372;BME280;62885;51.374;6.170;2022-11-06T12:15:31;100708.13;;;12.99;63.14
74372;BME280;62885;51.374;6.170;2022-11-06T12:18:08;100694.31;;;13.03;63.65
74372;BME280;62885;51.374;6.170;2022-11-06T12:23:13;100700.16;;;13.08;63.45
74372;BME280;62885;51.374;6.170;2022-11-06T12:25:45;100689.88;;;13.13;63.25
74372;BME280;62885;51.374;6.170;2022-11-06T12:28:15;100680.97;;;13.13;63.65
74372;BME280;62885;51.374;6.170;2022-11-06T12:30:43;100680.34;;;13.09;63.81
74372;BME280;62885;51.374;6.170;2022-11-06T12:33:14;100680.34;;;13.09;62.57
74372;BME280;62885;51.374;6.170;2022-11-06T12:35:45;100684.50;;;13.13;62.02
74372;BME280;62885;51.374;6.170;2022-11-06T12:38:16;100688.41;;;13.30;61.60
74372;BME280;62885;51.374;6.170;2022-11-06T12:40:52;100678.41;;;13.42;61.69
74372;BME280;62885;51.374;6.170;2022-11-06T12:43:28;100670.66;;;13.18;60.99
74372;BME280;62885;51.374;6.170;2022-11-06T12:51:53;100678.47;;;13.21;60.32
74372;BME280;62885;51.374;6.170;2022-11-06T12:57:26;100669.38;;;13.52;59.70
74372;BME280;62885;51.374;6.170;2022-11-06T13:00:10;100652.69;;;13.49;59.49
74372;BME280;62885;51.374;6.170;2022-11-06T13:08:28;100634.22;;;13.35;61.07
74372;BME280;62885;51.374;6.170;2022-11-06T13:16:15;100648.72;;;13.23;64.89
74372;BME280;62885;51.374;6.170;2022-11-06T13:18:47;100650.53;;;13.12;65.69
74372;BME280;62885;51.374;6.170;2022-11-06T13:24:10;100642.47;;;13.12;66.42
74372;BME280;62885;51.374;6.170;2022-11-06T13:26:51;100647.06;;;13.22;65.93
74372;BME280;62885;51.374;6.170;2022-11-06T13:29:20;100631.31;;;13.17;65.76
74372;BME280;62885;51.374;6.170;2022-11-06T13:31:55;100641.06;;;13.18;65.71
74372;BME280;62885;51.374;6.170;2022-11-06T13:34:28;100645.75;;;13.16;65.37
74372;BME280;62885;51.374;6.170;2022-11-06T13:36:55;100646.47;;;13.18;65.61
74372;BME280;62885;51.374;6.170;2022-11-06T13:39:37;100661.72;;;13.18;63.74
74372;BME280;62885;51.374;6.170;2022-11-06T13:42:18;100645.13;;;13.33;60.75
74372;BME280;62885;51.374;6.170;2022-11-06T13:44:44;100653.97;;;13.24;59.35
74372;BME280;62885;51.374;6.170;2022-11-06T13:47:21;100650.53;;;13.43;59.34
74372;BME280;62885;51.374;6.170;2022-11-06T13:52:39;100644.97;;;13.35;58.00
74372;BME280;62885;51.374;6.170;2022-11-06T13:58:41;100653.00;;;13.25;55.79
74372;BME280;62885;51.374;6.170;2022-11-06T14:06:33;100648.00;;;12.90;54.25
74372;BME280;62885;51.374;6.170;2022-11-06T14:09:05;100645.56;;;12.87;55.18
74372;BME280;62885;51.374;6.170;2022-11-06T14:11:35;100641.75;;;12.90;56.16
74372;BME280;62885;51.374;6.170;2022-11-06T14:19:37;100652.13;;;12.73;58.28
74372;BME280;62885;51.374;6.170;2022-11-06T14:22:41;100643.75;;;12.67;58.21
74372;BME280;62885;51.374;6.170;2022-11-06T14:32:53;100633.53;;;12.40;59.37
74372;BME280;62885;51.374;6.170;2022-11-06T14:40:35;100636.78;;;12.23;62.33
74372;BME280;62885;51.374;6.170;2022-11-06T14:43:20;100641.81;;;12.16;63.19
74372;BME280;62885;51.374;6.170;2022-11-06T14:45:54;100636.50;;;12.05;63.39
74372;BME280;62885;51.374;6.170;2022-11-06T14:50:54;100636.63;;;12.04;64.98
74372;BME280;62885;51.374;6.170;2022-11-06T14:53:23;100633.72;;;11.96;65.72
74372;BME280;62885;51.374;6.170;2022-11-06T14:56:10;100629.13;;;11.86;66.62
74372;BME280;62885;51.374;6.170;2022-11-06T14:58:52;100628.16;;;11.87;66.76
74372;BME280;62885;51.374;6.170;2022-11-06T15:01:28;100634.72;;;11.72;68.21
74372;BME280;62885;51.374;6.170;2022-11-06T15:03:56;100625.63;;;11.75;68.49
74372;BME280;62885;51.374;6.170;2022-11-06T15:09:00;100632.06;;;11.61;69.33
74372;BME280;62885;51.374;6.170;2022-11-06T15:16:26;100594.84;;;11.13;72.12
74372;BME280;62885;51.374;6.170;2022-11-06T15:18:52;100590.34;;;11.14;73.26
74372;BME280;62885;51.374;6.170;2022-11-06T15:21:23;100575.72;;;10.96;73.82
74372;BME280;62885;51.374;6.170;2022-11-06T15:24:08;100581.09;;;10.85;74.88
74372;BME280;62885;51.374;6.170;2022-11-06T15:26:40;100581.19;;;10.72;75.96
74372;BME280;62885;51.374;6.170;2022-11-06T15:31:43;100578.53;;;10.72;76.12